sensor_id;sensor_type;location;lat;lon;timestamp;pressure;altitude;pressure_sealevel;temperature;humidity
4576;BME280;2300;51.874;8.430;2023-08-17T00:00:07;101009.03;;;18.30;100.00
4576;BME280;2300;51.874;8.430;2023-08-17T00:02:35;101006.53;;;18.23;100.00
4576;BME280;2300;51.874;8.430;2023-08-17T00:05:02;101004.53;;;18.03;100.00
4576;BME280;2300;51.874;8.430;2023-08-17T00:07:29;100998.16;;;18.08;100.00
4576;BME280;2300;51.874;8.430;2023-08-17T00:09:55;100998.97;;;18.03;100.00
4576;BME280;2300;51.874;8.430;2023-08-17T00:12:22;100998.38;;;17.86;100.00
4576;BME280;2300;51.874;8.430;2023-08-17T00:14:50;100994.47;;;17.87;100.00
4576;BME280;2300;51.874;8.430;2023-08-17T00:17:16;100996.41;;;17.87;100.00
4576;BME280;2300;51.874;8.430;2023-08-17T00:19:43;100996.41;;;17.82;100.00
4576;BME280;2300;51.874;8.430;2023-08-17T00:22:10;100994.97;;;17.69;100.00
4576;BME280;2300;51.874;8.430;2023-08-17T00:24:36;100990.50;;;17.68;100.00
4576;BME280;2300;51.874;8.430;2023-08-17T00:27:03;100996.09;;;17.73;100.00
4576;BME280;2300;51.874;8.430;2023-08-17T00:29:30;100995.53;;;17.71;100.00
4576;BME280;2300;51.874;8.430;2023-08-17T00:31:58;100993.03;;;17.70;100.00
4576;BME280;2300;51.874;8.430;2023-08-17T00:34:26;100997.75;;;17.69;100.00
4576;BME280;2300;51.874;8.430;2023-08-17T00:36:53;101000.25;;;17.71;100.00
4576;BME280;2300;51.874;8.430;2023-08-17T00:39:20;100990.53;;;17.78;100.00
4576;BME280;2300;51.874;8.430;2023-08-17T00:41:46;100999.44;;;17.80;100.00
4576;BME280;2300;51.874;8.430;2023-08-17T00:44:13;101003.88;;;17.76;100.00
4576;BME280;2300;51.874;8.430;2023-08-17T00:46:39;101011.09;;;17.72;100.00
4576;BME280;2300;51.874;8.430;2023-08-17T00:49:07;101005.25;;;17.74;100.00
4576;BME280;2300;51.874;8.430;2023-08-17T00:51:34;101004.97;;;17.70;100.00
4576;BME280;2300;51.874;8.430;2023-08-17T00:54:01;101008.34;;;17.77;100.00
4576;BME280;2300;51.874;8.430;2023-08-17T00:56:28;101007.22;;;17.78;100.00
4576;BME280;2300;51.874;8.430;2023-08-17T00:58:55;101012.78;;;17.83;100.00
4576;BME280;2300;51.874;8.430;2023-08-17T01:01:22;101008.63;;;17.86;100.00
4576;BME280;2300;51.874;8.430;2023-08-17T01:03:49;101014.72;;;17.88;100.00
4576;BME280;2300;51.874;8.430;2023-08-17T01:06:18;101021.75;;;17.95;100.00
4576;BME280;2300;51.874;8.430;2023-08-17T01:08:44;101020.66;;;17.96;100.00
4576;BME280;2300;51.874;8.430;2023-08-17T01:11:20;101022.88;;;18.05;100.00
4576;BME280;2300;51.874;8.430;2023-08-17T01:13:52;101029.00;;;18.12;100.00
4576;BME280;2300;51.874;8.430;2023-08-17T01:16:23;101023.72;;;18.15;100.00
4576;BME280;2300;51.874;8.430;2023-08-17T01:18:51;101009.56;;;18.22;100.00
4576;BME280;2300;51.874;8.430;2023-08-17T01:21:21;101013.44;;;18.16;100.00
4576;BME280;2300;51.874;8.430;2023-08-17T01:23:51;101020.94;;;18.10;100.00
4576;BME280;2300;51.874;8.430;2023-08-17T01:26:18;101025.34;;;17.96;100.00
4576;BME280;2300;51.874;8.430;2023-08-17T01:28:45;101030.59;;;17.92;100.00
4576;BME280;2300;51.874;8.430;2023-08-17T01:31:18;101038.16;;;18.02;100.00
4576;BME280;2300;51.874;8.430;2023-08-17T01:33:49;101051.78;;;18.09;100.00
4576;BME280;2300;51.874;8.430;2023-08-17T01:36:20;101047.06;;;18.19;100.00
4576;BME280;2300;51.874;8.430;2023-08-17T01:38:52;101044.59;;;18.18;100.00
4576;BME280;2300;51.874;8.430;2023-08-17T01:41:22;101042.91;;;18.07;100.00
4576;BME280;2300;51.874;8.430;2023-08-17T01:43:50;101037.88;;;18.03;100.00
4576;BME280;2300;51.874;8.430;2023-08-17T01:46:18;101036.13;;;17.82;100.00
4576;BME280;2300;51.874;8.430;2023-08-17T01:48:45;101058.38;;;17.87;100.00
4576;BME280;2300;51.874;8.430;2023-08-17T01:51:16;101059.53;;;17.96;100.00
4576;BME280;2300;51.874;8.430;2023-08-17T01:53:44;101055.03;;;17.90;100.00
4576;BME280;2300;51.874;8.430;2023-08-17T01:56:11;101067.22;;;17.84;100.00
4576;BME280;2300;51.874;8.430;2023-08-17T01:58:38;101066.06;;;17.70;100.00
4576;BME280;2300;51.874;8.430;2023-08-17T02:01:05;101077.66;;;17.62;100.00
4576;BME280;2300;51.874;8.430;2023-08-17T02:03:31;101074.84;;;17.52;100.00
4576;BME280;2300;51.874;8.430;2023-08-17T02:05:58;101062.00;;;17.36;100.00
4576;BME280;2300;51.874;8.430;2023-08-17T02:08:25;101068.03;;;17.28;100.00
4576;BME280;2300;51.874;8.430;2023-08-17T02:10:52;101078.84;;;17.24;100.00
4576;BME280;2300;51.874;8.430;2023-08-17T02:13:19;101069.09;;;17.22;100.00
4576;BME280;2300;51.874;8.430;2023-08-17T02:16:01;101071.56;;;17.13;100.00
4576;BME280;2300;51.874;8.430;2023-08-17T02:18:28;101062.91;;;17.04;100.00
4576;BME280;2300;51.874;8.430;2023-08-17T02:20:57;101061.19;;;17.03;100.00
4576;BME280;2300;51.874;8.430;2023-08-17T02:23:23;101063.94;;;16.98;100.00
4576;BME280;2300;51.874;8.430;2023-08-17T02:25:50;101061.59;;;16.85;100.00
4576;BME280;2300;51.874;8.430;2023-08-17T02:28:17;101058.31;;;16.88;100.00
4576;BME280;2300;51.874;8.430;2023-08-17T02:30:46;101053.56;;;16.84;100.00
4576;BME280;2300;51.874;8.430;2023-08-17T02:33:13;101052.06;;;16.71;100.00
4576;BME280;2300;51.874;8.430;2023-08-17T02:35:39;101048.78;;;16.79;100.00
4576;BME280;2300;51.874;8.430;2023-08-17T02:38:06;101043.75;;;16.71;100.00
4576;BME280;2300;51.874;8.430;2023-08-17T02:40:32;101054.25;;;16.69;100.00
4576;BME280;2300;51.874;8.430;2023-08-17T02:42:59;101040.69;;;16.67;100.00
4576;BME280;2300;51.874;8.430;2023-08-17T02:45:25;101033.16;;;16.63;100.00
4576;BME280;2300;51.874;8.430;2023-08-17T02:47:53;101030.38;;;16.63;100.00
4576;BME280;2300;51.874;8.430;2023-08-17T02:50:20;101027.59;;;16.63;100.00
4576;BME280;2300;51.874;8.430;2023-08-17T02:52:46;101023.19;;;16.67;100.00
4576;BME280;2300;51.874;8.430;2023-08-17T02:55:13;101029.34;;;16.74;100.00
4576;BME280;2300;51.874;8.430;2023-08-17T02:57:40;101032.03;;;16.64;100.00
4576;BME280;2300;51.874;8.430;2023-08-17T03:00:07;101026.06;;;16.77;100.00
4576;BME280;2300;51.874;8.430;2023-08-17T03:02:34;101028.28;;;16.80;100.00
4576;BME280;2300;51.874;8.430;2023-08-17T03:05:02;101023.88;;;16.84;100.00
4576;BME280;2300;51.874;8.430;2023-08-17T03:07:29;101018.31;;;16.84;100.00
4576;BME280;2300;51.874;8.430;2023-08-17T03:09:55;101014.44;;;16.85;100.00
4576;BME280;2300;51.874;8.430;2023-08-17T03:12:22;101009.44;;;16.82;100.00
4576;BME280;2300;51.874;8.430;2023-08-17T03:14:48;101003.59;;;16.79;100.00
4576;BME280;2300;51.874;8.430;2023-08-17T03:17:15;101006.91;;;16.75;100.00
4576;BME280;2300;51.874;8.430;2023-08-17T03:19:43;101007.13;;;16.69;100.00
4576;BME280;2300;51.874;8.430;2023-08-17T03:22:10;100991.53;;;16.58;100.00
4576;BME280;2300;51.874;8.430;2023-08-17T03:24:37;100998.47;;;16.60;100.00
4576;BME280;2300;51.874;8.430;2023-08-17T03:27:04;101004.06;;;16.65;100.00
4576;BME280;2300;51.874;8.430;2023-08-17T03:29:30;101000.09;;;16.56;100.00
4576;BME280;2300;51.874;8.430;2023-08-17T03:31:57;100993.63;;;16.46;100.00
4576;BME280;2300;51.874;8.430;2023-08-17T03:34:23;100987.78;;;16.42;100.00
4576;BME280;2300;51.874;8.430;2023-08-17T03:36:50;100982.75;;;16.39;100.00
4576;BME280;2300;51.874;8.430;2023-08-17T03:39:18;100983.69;;;16.50;100.00
4576;BME280;2300;51.874;8.430;2023-08-17T03:41:44;100982.34;;;16.52;100.00
4576;BME280;2300;51.874;8.430;2023-08-17T03:44:11;100986.50;;;16.55;100.00
4576;BME280;2300;51.874;8.430;2023-08-17T03:46:39;100984.34;;;16.62;100.00
4576;BME280;2300;51.874;8.430;2023-08-17T03:49:05;100990.19;;;16.65;100.00
4576;BME280;2300;51.874;8.430;2023-08-17T03:51:32;100989.94;;;16.67;100.00
4576;BME280;2300;51.874;8.430;2023-08-17T03:53:58;100992.44;;;16.68;100.00
4576;BME280;2300;51.874;8.430;2023-08-17T03:56:26;100987.19;;;16.72;100.00
4576;BME280;2300;51.874;8.430;2023-08-17T03:58:53;100987.13;;;16.62;100.00
4576;BME280;2300;51.874;8.430;2023-08-17T04:01:20;100990.44;;;16.64;100.00
4576;BME280;2300;51.874;8.430;2023-08-17T04:03:46;100984.66;;;16.65;100.00
4576;BME280;2300;51.874;8.430;2023-08-17T04:06:13;100992.44;;;16.68;100.00
4576;BME280;2300;51.874;8.430;2023-08-17T04:08:39;100996.59;;;16.71;100.00
4576;BME280;2300;51.874;8.430;2023-08-17T04:11:06;100991.06;;;16.71;100.00
4576;BME280;2300;51.874;8.430;2023-08-17T04:13:34;100995.22;;;16.68;100.00
4576;BME280;2300;51.874;8.430;2023-08-17T04:16:01;100991.91;;;16.71;100.00
4576;BME280;2300;51.874;8.430;2023-08-17T04:18:27;100992.75;;;16.72;100.00
4576;BME280;2300;51.874;8.430;2023-08-17T04:20:54;100997.19;;;16.73;100.00
4576;BME280;2300;51.874;8.430;2023-08-17T04:23:20;100994.97;;;16.75;100.00
4576;BME280;2300;51.874;8.430;2023-08-17T04:25:47;101004.38;;;16.74;100.00
4576;BME280;2300;51.874;8.430;2023-08-17T04:28:14;100979.91;;;16.61;100.00
4576;BME280;2300;51.874;8.430;2023-08-17T04:30:42;100994.91;;;16.65;100.00
4576;BME280;2300;51.874;8.430;2023-08-17T04:33:09;101001.28;;;16.65;100.00
4576;BME280;2300;51.874;8.430;2023-08-17T04:35:35;101012.41;;;16.70;100.00
4576;BME280;2300;51.874;8.430;2023-08-17T04:38:02;101007.69;;;16.71;100.00
4576;BME280;2300;51.874;8.430;2023-08-17T04:40:29;101012.38;;;16.65;100.00
4576;BME280;2300;51.874;8.430;2023-08-17T04:42:55;101025.97;;;16.67;100.00
4576;BME280;2300;51.874;8.430;2023-08-17T04:45:22;101020.22;;;16.73;100.00
4576;BME280;2300;51.874;8.430;2023-08-17T04:47:50;101017.78;;;16.82;100.00
4576;BME280;2300;51.874;8.430;2023-08-17T04:50:17;101024.47;;;16.91;100.00
4576;BME280;2300;51.874;8.430;2023-08-17T04:52:44;101028.94;;;16.92;100.00
4576;BME280;2300;51.874;8.430;2023-08-17T04:55:10;101022.88;;;17.00;100.00
4576;BME280;2300;51.874;8.430;2023-08-17T04:57:37;101027.28;;;16.96;100.00
4576;BME280;2300;51.874;8.430;2023-08-17T05:00:05;101027.25;;;16.91;100.00
4576;BME280;2300;51.874;8.430;2023-08-17T05:02:34;101031.16;;;16.95;100.00
4576;BME280;2300;51.874;8.430;2023-08-17T05:05:04;101022.59;;;16.97;100.00
4576;BME280;2300;51.874;8.430;2023-08-17T05:07:31;101026.16;;;16.92;100.00
4576;BME280;2300;51.874;8.430;2023-08-17T05:09:57;101027.03;;;16.98;100.00
4576;BME280;2300;51.874;8.430;2023-08-17T05:12:24;101028.69;;;16.94;100.00
4576;BME280;2300;51.874;8.430;2023-08-17T05:14:50;101026.78;;;16.99;100.00
4576;BME280;2300;51.874;8.430;2023-08-17T05:17:17;101030.06;;;16.96;100.00
4576;BME280;2300;51.874;8.430;2023-08-17T05:19:43;101023.34;;;16.87;100.00
4576;BME280;2300;51.874;8.430;2023-08-17T05:22:12;101022.00;;;16.95;100.00
4576;BME280;2300;51.874;8.430;2023-08-17T05:24:39;101026.47;;;16.96;100.00
4576;BME280;2300;51.874;8.430;2023-08-17T05:27:05;101016.19;;;16.96;100.00
4576;BME280;2300;51.874;8.430;2023-08-17T05:29:32;101027.50;;;16.90;100.00
4576;BME280;2300;51.874;8.430;2023-08-17T05:31:59;101030.63;;;16.93;100.00
4576;BME280;2300;51.874;8.430;2023-08-17T05:34:25;101032.81;;;16.91;100.00
4576;BME280;2300;51.874;8.430;2023-08-17T05:36:52;101027.88;;;16.98;100.00
4576;BME280;2300;51.874;8.430;2023-08-17T05:39:20;101035.72;;;17.06;100.00
4576;BME280;2300;51.874;8.430;2023-08-17T05:41:46;101043.78;;;17.08;100.00
4576;BME280;2300;51.874;8.430;2023-08-17T05:44:13;101042.34;;;17.05;100.00
4576;BME280;2300;51.874;8.430;2023-08-17T05:46:40;101045.97;;;17.06;100.00
4576;BME280;2300;51.874;8.430;2023-08-17T05:49:07;101039.00;;;17.03;100.00
4576;BME280;2300;51.874;8.430;2023-08-17T05:51:33;101050.69;;;17.05;100.00
4576;BME280;2300;51.874;8.430;2023-08-17T05:54:00;101049.91;;;17.10;100.00
4576;BME280;2300;51.874;8.430;2023-08-17T05:56:28;101052.44;;;17.16;100.00
4576;BME280;2300;51.874;8.430;2023-08-17T05:58:54;101059.97;;;17.26;100.00
4576;BME280;2300;51.874;8.430;2023-08-17T06:01:21;101060.03;;;17.36;100.00
4576;BME280;2300;51.874;8.430;2023-08-17T06:03:48;101063.16;;;17.45;100.00
4576;BME280;2300;51.874;8.430;2023-08-17T06:06:15;101058.50;;;17.55;100.00
4576;BME280;2300;51.874;8.430;2023-08-17T06:08:41;101058.75;;;17.49;100.00
4576;BME280;2300;51.874;8.430;2023-08-17T06:11:08;101054.03;;;17.49;100.00
4576;BME280;2300;51.874;8.430;2023-08-17T06:13:36;101041.19;;;17.38;100.00
4576;BME280;2300;51.874;8.430;2023-08-17T06:16:02;101029.75;;;17.25;100.00
4576;BME280;2300;51.874;8.430;2023-08-17T06:18:29;101014.69;;;17.15;100.00
4576;BME280;2300;51.874;8.430;2023-08-17T06:20:56;101006.31;;;17.10;100.00
4576;BME280;2300;51.874;8.430;2023-08-17T06:23:23;101000.50;;;17.07;100.00
4576;BME280;2300;51.874;8.430;2023-08-17T06:25:50;101003.00;;;17.08;100.00
4576;BME280;2300;51.874;8.430;2023-08-17T06:28:17;101018.63;;;17.20;100.00
4576;BME280;2300;51.874;8.430;2023-08-17T06:30:45;101023.69;;;17.38;100.00
4576;BME280;2300;51.874;8.430;2023-08-17T06:33:11;101030.41;;;17.52;100.00
4576;BME280;2300;51.874;8.430;2023-08-17T06:35:38;101037.44;;;17.65;100.00
4576;BME280;2300;51.874;8.430;2023-08-17T06:38:04;101043.28;;;17.73;100.00
4576;BME280;2300;51.874;8.430;2023-08-17T06:40:31;101046.06;;;17.73;100.00
4576;BME280;2300;51.874;8.430;2023-08-17T06:42:58;101034.91;;;17.58;100.00
4576;BME280;2300;51.874;8.430;2023-08-17T06:45:24;101029.91;;;17.55;100.00
4576;BME280;2300;51.874;8.430;2023-08-17T06:47:53;101027.97;;;17.55;100.00
4576;BME280;2300;51.874;8.430;2023-08-17T06:50:20;101029.06;;;17.54;100.00
4576;BME280;2300;51.874;8.430;2023-08-17T06:52:46;101039.38;;;17.64;100.00
4576;BME280;2300;51.874;8.430;2023-08-17T06:55:13;101040.16;;;18.22;100.00
4576;BME280;2300;51.874;8.430;2023-08-17T06:57:40;101035.47;;;18.53;100.00
4576;BME280;2300;51.874;8.430;2023-08-17T07:00:07;101021.81;;;18.36;100.00
4576;BME280;2300;51.874;8.430;2023-08-17T07:02:36;101039.34;;;18.36;100.00
4576;BME280;2300;51.874;8.430;2023-08-17T07:05:05;101041.81;;;18.18;100.00
4576;BME280;2300;51.874;8.430;2023-08-17T07:07:31;101046.22;;;18.14;100.00
4576;BME280;2300;51.874;8.430;2023-08-17T07:09:58;101047.69;;;18.36;100.00
4576;BME280;2300;51.874;8.430;2023-08-17T07:12:24;101046.59;;;18.53;100.00
4576;BME280;2300;51.874;8.430;2023-08-17T07:14:51;101039.31;;;18.31;100.00
4576;BME280;2300;51.874;8.430;2023-08-17T07:17:18;101046.81;;;18.26;100.00
4576;BME280;2300;51.874;8.430;2023-08-17T07:19:44;101051.84;;;18.29;100.00
4576;BME280;2300;51.874;8.430;2023-08-17T07:22:12;101052.97;;;18.38;100.00
4576;BME280;2300;51.874;8.430;2023-08-17T07:24:39;101054.63;;;18.29;100.00
4576;BME280;2300;51.874;8.430;2023-08-17T07:27:05;101059.88;;;18.30;100.00
4576;BME280;2300;51.874;8.430;2023-08-17T07:29:32;101056.00;;;18.26;100.00
4576;BME280;2300;51.874;8.430;2023-08-17T07:31:58;101054.63;;;18.24;100.00
4576;BME280;2300;51.874;8.430;2023-08-17T07:34:27;101059.03;;;18.25;100.00
4576;BME280;2300;51.874;8.430;2023-08-17T07:36:54;101063.50;;;18.31;100.00
4576;BME280;2300;51.874;8.430;2023-08-17T07:39:22;101039.56;;;18.15;100.00
4576;BME280;2300;51.874;8.430;2023-08-17T07:41:48;101070.19;;;18.35;100.00
4576;BME280;2300;51.874;8.430;2023-08-17T07:44:15;101069.66;;;18.43;100.00
4576;BME280;2300;51.874;8.430;2023-08-17T07:46:41;101077.16;;;18.48;100.00
4576;BME280;2300;51.874;8.430;2023-08-17T07:49:08;101074.13;;;18.44;100.00
4576;BME280;2300;51.874;8.430;2023-08-17T07:51:35;101077.44;;;18.51;100.00
4576;BME280;2300;51.874;8.430;2023-08-17T07:54:01;101088.03;;;18.54;100.00
4576;BME280;2300;51.874;8.430;2023-08-17T07:56:29;101089.66;;;18.55;100.00
4576;BME280;2300;51.874;8.430;2023-08-17T07:58:56;101090.81;;;18.49;100.00
4576;BME280;2300;51.874;8.430;2023-08-17T08:01:23;101081.31;;;18.40;100.00
4576;BME280;2300;51.874;8.430;2023-08-17T08:03:50;101081.88;;;18.47;100.00
4576;BME280;2300;51.874;8.430;2023-08-17T08:06:16;101083.31;;;18.65;100.00
4576;BME280;2300;51.874;8.430;2023-08-17T08:08:46;101091.94;;;18.68;100.00
4576;BME280;2300;51.874;8.430;2023-08-17T08:11:12;101086.09;;;18.65;100.00
4576;BME280;2300;51.874;8.430;2023-08-17T08:13:40;101085.25;;;18.79;100.00
4576;BME280;2300;51.874;8.430;2023-08-17T08:16:07;101089.66;;;18.55;100.00
4576;BME280;2300;51.874;8.430;2023-08-17T08:18:33;101077.72;;;18.44;100.00
4576;BME280;2300;51.874;8.430;2023-08-17T08:21:00;101076.31;;;18.37;100.00
4576;BME280;2300;51.874;8.430;2023-08-17T08:23:26;101074.13;;;18.49;100.00
4576;BME280;2300;51.874;8.430;2023-08-17T08:25:53;101077.16;;;18.48;100.00
4576;BME280;2300;51.874;8.430;2023-08-17T08:28:19;101083.00;;;18.66;100.00
4576;BME280;2300;51.874;8.430;2023-08-17T08:30:47;101083.84;;;18.62;100.00
4576;BME280;2300;51.874;8.430;2023-08-17T08:33:14;101089.72;;;18.75;100.00
4576;BME280;2300;51.874;8.430;2023-08-17T08:35:41;101068.00;;;18.62;100.00
4576;BME280;2300;51.874;8.430;2023-08-17T08:38:07;101095.31;;;18.85;100.00
4576;BME280;2300;51.874;8.430;2023-08-17T08:40:35;101085.03;;;18.86;100.00
4576;BME280;2300;51.874;8.430;2023-08-17T08:43:03;101086.66;;;18.92;100.00
4576;BME280;2300;51.874;8.430;2023-08-17T08:45:30;101084.19;;;18.96;100.00
4576;BME280;2300;51.874;8.430;2023-08-17T08:48:00;101090.00;;;19.09;100.00
4576;BME280;2300;51.874;8.430;2023-08-17T08:50:31;101084.47;;;18.94;100.00
4576;BME280;2300;51.874;8.430;2023-08-17T08:52:59;101091.69;;;18.90;100.00
4576;BME280;2300;51.874;8.430;2023-08-17T08:55:29;101083.63;;;18.89;100.00
4576;BME280;2300;51.874;8.430;2023-08-17T08:57:56;101087.47;;;18.67;100.00
4576;BME280;2300;51.874;8.430;2023-08-17T09:00:24;101080.25;;;18.76;100.00
4576;BME280;2300;51.874;8.430;2023-08-17T09:02:52;101076.06;;;18.74;100.00
4576;BME280;2300;51.874;8.430;2023-08-17T09:05:21;101075.00;;;18.85;100.00
4576;BME280;2300;51.874;8.430;2023-08-17T09:07:49;101074.69;;;18.97;100.00
4576;BME280;2300;51.874;8.430;2023-08-17T09:10:16;101071.38;;;19.05;100.00
4576;BME280;2300;51.874;8.430;2023-08-17T09:12:45;101072.50;;;18.99;100.00
4576;BME280;2300;51.874;8.430;2023-08-17T09:15:11;101063.56;;;18.97;100.00
4576;BME280;2300;51.874;8.430;2023-08-17T09:17:38;101075.25;;;19.14;100.00
4576;BME280;2300;51.874;8.430;2023-08-17T09:20:06;101066.06;;;19.18;100.00
4576;BME280;2300;51.874;8.430;2023-08-17T09:22:39;101058.03;;;19.07;100.00
4576;BME280;2300;51.874;8.430;2023-08-17T09:25:07;101052.47;;;19.07;100.00
4576;BME280;2300;51.874;8.430;2023-08-17T09:27:36;101048.25;;;19.09;100.00
4576;BME280;2300;51.874;8.430;2023-08-17T09:30:03;101050.50;;;18.82;100.00
4576;BME280;2300;51.874;8.430;2023-08-17T09:32:31;101064.41;;;19.07;100.00
4576;BME280;2300;51.874;8.430;2023-08-17T09:35:00;101050.22;;;19.14;100.00
4576;BME280;2300;51.874;8.430;2023-08-17T09:37:27;101056.88;;;19.13;100.00
4576;BME280;2300;51.874;8.430;2023-08-17T09:39:55;101057.44;;;19.10;100.00
4576;BME280;2300;51.874;8.430;2023-08-17T09:42:22;101065.22;;;19.18;100.00
4576;BME280;2300;51.874;8.430;2023-08-17T09:44:51;101068.28;;;19.26;100.00
4576;BME280;2300;51.874;8.430;2023-08-17T09:47:17;101067.44;;;19.26;100.00
4576;BME280;2300;51.874;8.430;2023-08-17T09:49:48;101063.84;;;19.20;100.00
4576;BME280;2300;51.874;8.430;2023-08-17T09:52:14;101060.19;;;19.35;100.00
4576;BME280;2300;51.874;8.430;2023-08-17T09:54:41;101056.56;;;19.40;100.00
4576;BME280;2300;51.874;8.430;2023-08-17T09:57:10;101066.84;;;19.39;100.00
4576;BME280;2300;51.874;8.430;2023-08-17T09:59:36;101059.63;;;19.48;100.00
4576;BME280;2300;51.874;8.430;2023-08-17T10:02:03;101067.63;;;19.60;100.00
4576;BME280;2300;51.874;8.430;2023-08-17T10:04:34;101069.03;;;19.57;100.00
4576;BME280;2300;51.874;8.430;2023-08-17T10:07:03;101070.13;;;19.72;100.00
4576;BME280;2300;51.874;8.430;2023-08-17T10:09:36;101062.63;;;19.67;100.00
4576;BME280;2300;51.874;8.430;2023-08-17T10:12:10;101059.28;;;19.55;100.00
4576;BME280;2300;51.874;8.430;2023-08-17T10:14:40;101068.75;;;19.54;100.00
4576;BME280;2300;51.874;8.430;2023-08-17T10:17:14;101060.44;;;19.44;100.00
4576;BME280;2300;51.874;8.430;2023-08-17T10:19:47;101054.03;;;19.48;100.00
4576;BME280;2300;51.874;8.430;2023-08-17T10:22:20;101043.41;;;19.55;100.00
4576;BME280;2300;51.874;8.430;2023-08-17T10:24:50;101058.44;;;19.54;100.00
4576;BME280;2300;51.874;8.430;2023-08-17T10:27:20;101064.06;;;19.34;100.00
4576;BME280;2300;51.874;8.430;2023-08-17T10:29:47;101066.59;;;19.36;100.00
4576;BME280;2300;51.874;8.430;2023-08-17T10:32:17;101076.88;;;19.45;100.00
4576;BME280;2300;51.874;8.430;2023-08-17T10:34:44;101066.00;;;19.39;100.00
4576;BME280;2300;51.874;8.430;2023-08-17T10:37:11;101074.06;;;19.50;100.00
4576;BME280;2300;51.874;8.430;2023-08-17T10:39:45;101082.41;;;19.55;100.00
4576;BME280;2300;51.874;8.430;2023-08-17T10:42:12;101080.44;;;19.61;100.00
4576;BME280;2300;51.874;8.430;2023-08-17T10:44:43;101084.09;;;19.66;100.00
4576;BME280;2300;51.874;8.430;2023-08-17T10:47:22;101085.19;;;19.70;100.00
4576;BME280;2300;51.874;8.430;2023-08-17T10:49:49;101082.13;;;19.57;100.00
4576;BME280;2300;51.874;8.430;2023-08-17T10:52:26;101074.94;;;19.31;100.00
4576;BME280;2300;51.874;8.430;2023-08-17T10:54:53;101077.47;;;19.32;100.00
4576;BME280;2300;51.874;8.430;2023-08-17T10:57:31;101079.38;;;19.42;100.00
4576;BME280;2300;51.874;8.430;2023-08-17T11:00:24;101080.22;;;19.47;100.00
4576;BME280;2300;51.874;8.430;2023-08-17T11:02:56;101090.22;;;19.38;100.00
4576;BME280;2300;51.874;8.430;2023-08-17T11:05:38;101084.13;;;19.36;100.00
4576;BME280;2300;51.874;8.430;2023-08-17T11:08:05;101079.38;;;19.47;100.00
4576;BME280;2300;51.874;8.430;2023-08-17T11:10:32;101079.38;;;19.47;100.00
4576;BME280;2300;51.874;8.430;2023-08-17T11:13:00;101085.47;;;19.54;100.00
4576;BME280;2300;51.874;8.430;2023-08-17T11:15:36;101086.31;;;19.54;100.00
4576;BME280;2300;51.874;8.430;2023-08-17T11:18:09;101095.00;;;19.43;100.00
4576;BME280;2300;51.874;8.430;2023-08-17T11:20:37;101089.66;;;19.51;100.00
4576;BME280;2300;51.874;8.430;2023-08-17T11:23:05;101086.88;;;19.51;100.00
4576;BME280;2300;51.874;8.430;2023-08-17T11:25:32;101099.13;;;19.55;100.00
4576;BME280;2300;51.874;8.430;2023-08-17T11:28:00;101094.94;;;19.68;100.00
4576;BME280;2300;51.874;8.430;2023-08-17T11:30:27;101099.97;;;19.66;100.00
4576;BME280;2300;51.874;8.430;2023-08-17T11:32:56;101098.59;;;19.38;100.00
4576;BME280;2300;51.874;8.430;2023-08-17T11:35:22;101088.56;;;19.47;100.00
4576;BME280;2300;51.874;8.430;2023-08-17T11:37:49;101083.03;;;19.32;100.00
4576;BME280;2300;51.874;8.430;2023-08-17T11:40:16;101080.78;;;19.39;100.00
4576;BME280;2300;51.874;8.430;2023-08-17T11:42:44;101081.88;;;19.38;100.00
4576;BME280;2300;51.874;8.430;2023-08-17T11:45:11;101082.94;;;19.62;100.00
4576;BME280;2300;51.874;8.430;2023-08-17T11:47:38;101080.19;;;19.67;100.00
4576;BME280;2300;51.874;8.430;2023-08-17T11:50:09;101089.91;;;19.65;100.00
4576;BME280;2300;51.874;8.430;2023-08-17T11:52:36;101093.25;;;19.72;100.00
4576;BME280;2300;51.874;8.430;2023-08-17T11:55:04;101086.84;;;19.72;100.00
4576;BME280;2300;51.874;8.430;2023-08-17T11:57:31;101056.00;;;19.48;100.00
4576;BME280;2300;51.874;8.430;2023-08-17T11:59:58;101086.88;;;19.66;100.00
4576;BME280;2300;51.874;8.430;2023-08-17T12:02:27;101073.19;;;19.60;100.00
4576;BME280;2300;51.874;8.430;2023-08-17T12:04:55;101085.19;;;19.65;100.00
4576;BME280;2300;51.874;8.430;2023-08-17T12:07:24;101082.66;;;19.79;100.00
4576;BME280;2300;51.874;8.430;2023-08-17T12:09:51;101090.41;;;19.87;100.00
4576;BME280;2300;51.874;8.430;2023-08-17T12:12:19;101077.28;;;19.98;100.00
4576;BME280;2300;51.874;8.430;2023-08-17T12:14:47;101082.06;;;19.87;100.00
4576;BME280;2300;51.874;8.430;2023-08-17T12:17:14;101080.19;;;19.52;100.00
4576;BME280;2300;51.874;8.430;2023-08-17T12:19:42;101081.28;;;19.61;100.00
4576;BME280;2300;51.874;8.430;2023-08-17T12:22:09;101085.19;;;19.70;100.00
4576;BME280;2300;51.874;8.430;2023-08-17T12:24:37;101078.50;;;19.66;100.00
4576;BME280;2300;51.874;8.430;2023-08-17T12:27:05;101075.97;;;19.75;100.00
4576;BME280;2300;51.874;8.430;2023-08-17T12:29:32;101078.72;;;19.80;100.00
4576;BME280;2300;51.874;8.430;2023-08-17T12:31:59;101072.78;;;20.02;100.00
4576;BME280;2300;51.874;8.430;2023-08-17T12:34:27;101077.00;;;19.99;100.00
4576;BME280;2300;51.874;8.430;2023-08-17T12:36:54;101074.72;;;20.06;100.00
4576;BME280;2300;51.874;8.430;2023-08-17T12:39:20;101074.38;;;20.18;100.00
4576;BME280;2300;51.874;8.430;2023-08-17T12:41:49;101068.31;;;20.06;100.00
4576;BME280;2300;51.874;8.430;2023-08-17T12:46:42;101075.56;;;20.02;100.00
4576;BME280;2300;51.874;8.430;2023-08-17T12:49:08;101069.78;;;19.88;100.00
4576;BME280;2300;51.874;8.430;2023-08-17T12:51:35;101068.38;;;19.91;100.00
4576;BME280;2300;51.874;8.430;2023-08-17T12:54:03;101072.59;;;19.88;100.00
4576;BME280;2300;51.874;8.430;2023-08-17T12:56:30;101048.09;;;19.75;100.00
4576;BME280;2300;51.874;8.430;2023-08-17T12:58:58;101076.84;;;19.65;100.00
4576;BME280;2300;51.874;8.430;2023-08-17T13:01:24;101079.53;;;19.91;100.00
4576;BME280;2300;51.874;8.430;2023-08-17T13:03:51;101067.19;;;20.07;100.00